sensor_id;sensor_type;location;lat;lon;timestamp;P1;durP1;ratioP1;P2;durP2;ratioP2
76826;SDS011;65788;52.284;20.890;2023-04-25T00:02:14;6.60;;;5.90;;
76826;SDS011;65788;52.284;20.890;2023-04-25T00:04:41;9.20;;;6.40;;
76826;SDS011;65788;52.284;20.890;2023-04-25T00:07:08;7.10;;;6.10;;
76826;SDS011;65788;52.284;20.890;2023-04-25T00:09:35;7.40;;;5.70;;
76826;SDS011;65788;52.284;20.890;2023-04-25T00:12:02;7.10;;;6.10;;
76826;SDS011;65788;52.284;20.890;2023-04-25T00:14:31;6.60;;;5.70;;
76826;SDS011;65788;52.284;20.890;2023-04-25T00:17:00;6.40;;;5.60;;
76826;SDS011;65788;52.284;20.890;2023-04-25T00:19:29;7.70;;;5.60;;
76826;SDS011;65788;52.284;20.890;2023-04-25T00:21:56;7.20;;;5.80;;
76826;SDS011;65788;52.284;20.890;2023-04-25T00:24:24;6.60;;;5.80;;
76826;SDS011;65788;52.284;20.890;2023-04-25T00:26:51;7.20;;;5.60;;
76826;SDS011;65788;52.284;20.890;2023-04-25T00:29:18;8.30;;;5.80;;
76826;SDS011;65788;52.284;20.890;2023-04-25T00:31:45;7.90;;;6.00;;
76826;SDS011;65788;52.284;20.890;2023-04-25T00:34:12;7.00;;;5.80;;
76826;SDS011;65788;52.284;20.890;2023-04-25T00:36:39;7.00;;;5.70;;
76826;SDS011;65788;52.284;20.890;2023-04-25T00:39:06;6.70;;;5.60;;
76826;SDS011;65788;52.284;20.890;2023-04-25T00:41:33;7.60;;;5.40;;
76826;SDS011;65788;52.284;20.890;2023-04-25T00:44:00;6.60;;;5.80;;
76826;SDS011;65788;52.284;20.890;2023-04-25T00:46:29;6.70;;;5.90;;
76826;SDS011;65788;52.284;20.890;2023-04-25T00:51:24;6.10;;;5.30;;
76826;SDS011;65788;52.284;20.890;2023-04-25T00:56:21;7.40;;;6.20;;
76826;SDS011;65788;52.284;20.890;2023-04-25T00:58:49;8.10;;;6.10;;
76826;SDS011;65788;52.284;20.890;2023-04-25T01:01:19;6.30;;;5.60;;
76826;SDS011;65788;52.284;20.890;2023-04-25T01:03:46;7.60;;;5.90;;
76826;SDS011;65788;52.284;20.890;2023-04-25T01:06:13;7.10;;;5.60;;
76826;SDS011;65788;52.284;20.890;2023-04-25T01:08:40;6.90;;;5.70;;
76826;SDS011;65788;52.284;20.890;2023-04-25T01:11:07;6.60;;;5.60;;
76826;SDS011;65788;52.284;20.890;2023-04-25T01:13:35;6.70;;;5.80;;
76826;SDS011;65788;52.284;20.890;2023-04-25T01:16:02;6.40;;;5.80;;
76826;SDS011;65788;52.284;20.890;2023-04-25T01:18:32;7.10;;;5.60;;
76826;SDS011;65788;52.284;20.890;2023-04-25T01:21:06;7.60;;;5.50;;
76826;SDS011;65788;52.284;20.890;2023-04-25T01:23:37;7.30;;;5.80;;
76826;SDS011;65788;52.284;20.890;2023-04-25T01:26:10;7.00;;;5.70;;
76826;SDS011;65788;52.284;20.890;2023-04-25T01:28:39;8.00;;;5.40;;
76826;SDS011;65788;52.284;20.890;2023-04-25T01:31:09;7.50;;;6.50;;
76826;SDS011;65788;52.284;20.890;2023-04-25T01:33:38;6.50;;;5.60;;
76826;SDS011;65788;52.284;20.890;2023-04-25T01:36:05;6.90;;;6.00;;
76826;SDS011;65788;52.284;20.890;2023-04-25T01:38:33;6.30;;;5.30;;
76826;SDS011;65788;52.284;20.890;2023-04-25T01:41:00;7.40;;;5.80;;
76826;SDS011;65788;52.284;20.890;2023-04-25T01:43:27;6.00;;;5.20;;
76826;SDS011;65788;52.284;20.890;2023-04-25T01:45:54;6.80;;;5.60;;
76826;SDS011;65788;52.284;20.890;2023-04-25T01:48:23;6.30;;;5.30;;
76826;SDS011;65788;52.284;20.890;2023-04-25T01:50:50;6.60;;;5.50;;
76826;SDS011;65788;52.284;20.890;2023-04-25T01:53:17;5.80;;;5.10;;
76826;SDS011;65788;52.284;20.890;2023-04-25T01:55:46;6.80;;;5.90;;
76826;SDS011;65788;52.284;20.890;2023-04-25T01:58:14;7.00;;;5.80;;
76826;SDS011;65788;52.284;20.890;2023-04-25T02:00:41;6.60;;;5.20;;
76826;SDS011;65788;52.284;20.890;2023-04-25T02:03:08;6.80;;;5.90;;
76826;SDS011;65788;52.284;20.890;2023-04-25T02:05:35;6.80;;;5.50;;
76826;SDS011;65788;52.284;20.890;2023-04-25T02:08:07;6.70;;;5.70;;
76826;SDS011;65788;52.284;20.890;2023-04-25T02:13:02;6.70;;;5.80;;
76826;SDS011;65788;52.284;20.890;2023-04-25T02:15:31;7.00;;;5.30;;
76826;SDS011;65788;52.284;20.890;2023-04-25T02:17:59;7.00;;;5.50;;
76826;SDS011;65788;52.284;20.890;2023-04-25T02:20:29;6.70;;;5.60;;
76826;SDS011;65788;52.284;20.890;2023-04-25T02:22:58;7.40;;;5.30;;
76826;SDS011;65788;52.284;20.890;2023-04-25T02:25:24;6.40;;;5.20;;
76826;SDS011;65788;52.284;20.890;2023-04-25T02:27:52;7.30;;;5.20;;
76826;SDS011;65788;52.284;20.890;2023-04-25T02:30:19;5.60;;;5.00;;
76826;SDS011;65788;52.284;20.890;2023-04-25T02:32:46;5.70;;;5.10;;
76826;SDS011;65788;52.284;20.890;2023-04-25T02:35:13;6.80;;;5.40;;
76826;SDS011;65788;52.284;20.890;2023-04-25T02:37:41;6.90;;;5.30;;
76826;SDS011;65788;52.284;20.890;2023-04-25T02:40:09;6.00;;;5.20;;
76826;SDS011;65788;52.284;20.890;2023-04-25T02:42:37;6.30;;;4.90;;
76826;SDS011;65788;52.284;20.890;2023-04-25T02:45:04;6.20;;;5.10;;
76826;SDS011;65788;52.284;20.890;2023-04-25T02:47:31;6.30;;;5.00;;
76826;SDS011;65788;52.284;20.890;2023-04-25T02:49:58;6.10;;;5.00;;
76826;SDS011;65788;52.284;20.890;2023-04-25T02:52:25;6.70;;;5.20;;
76826;SDS011;65788;52.284;20.890;2023-04-25T02:54:51;7.00;;;5.10;;
76826;SDS011;65788;52.284;20.890;2023-04-25T02:57:19;6.50;;;5.30;;
76826;SDS011;65788;52.284;20.890;2023-04-25T02:59:46;6.40;;;4.80;;
76826;SDS011;65788;52.284;20.890;2023-04-25T03:02:13;6.10;;;4.80;;
76826;SDS011;65788;52.284;20.890;2023-04-25T03:04:40;6.70;;;4.90;;
76826;SDS011;65788;52.284;20.890;2023-04-25T03:07:07;6.90;;;5.00;;
76826;SDS011;65788;52.284;20.890;2023-04-25T03:09:34;6.90;;;5.20;;
76826;SDS011;65788;52.284;20.890;2023-04-25T03:12:01;5.90;;;4.70;;
76826;SDS011;65788;52.284;20.890;2023-04-25T03:14:28;5.40;;;4.80;;
76826;SDS011;65788;52.284;20.890;2023-04-25T03:16:55;6.10;;;5.00;;
76826;SDS011;65788;52.284;20.890;2023-04-25T03:19:22;5.30;;;4.50;;
76826;SDS011;65788;52.284;20.890;2023-04-25T03:21:49;6.40;;;4.90;;
76826;SDS011;65788;52.284;20.890;2023-04-25T03:24:16;4.90;;;4.40;;
76826;SDS011;65788;52.284;20.890;2023-04-25T03:26:43;6.60;;;4.90;;
76826;SDS011;65788;52.284;20.890;2023-04-25T03:29:10;5.70;;;4.80;;
76826;SDS011;65788;52.284;20.890;2023-04-25T03:31:37;6.00;;;4.60;;
76826;SDS011;65788;52.284;20.890;2023-04-25T03:34:04;6.00;;;4.80;;
76826;SDS011;65788;52.284;20.890;2023-04-25T03:36:31;6.00;;;4.60;;
76826;SDS011;65788;52.284;20.890;2023-04-25T03:38:59;7.00;;;4.70;;
76826;SDS011;65788;52.284;20.890;2023-04-25T03:41:26;5.40;;;4.60;;
76826;SDS011;65788;52.284;20.890;2023-04-25T03:43:53;6.60;;;4.00;;
76826;SDS011;65788;52.284;20.890;2023-04-25T03:46:20;5.80;;;4.40;;
76826;SDS011;65788;52.284;20.890;2023-04-25T03:48:47;5.10;;;4.40;;
76826;SDS011;65788;52.284;20.890;2023-04-25T03:51:14;5.90;;;4.10;;
76826;SDS011;65788;52.284;20.890;2023-04-25T03:53:40;5.40;;;4.40;;
76826;SDS011;65788;52.284;20.890;2023-04-25T03:56:07;6.10;;;4.50;;
76826;SDS011;65788;52.284;20.890;2023-04-25T03:58:35;6.10;;;5.00;;
76826;SDS011;65788;52.284;20.890;2023-04-25T04:01:02;5.60;;;4.40;;
76826;SDS011;65788;52.284;20.890;2023-04-25T04:03:34;6.00;;;4.50;;
76826;SDS011;65788;52.284;20.890;2023-04-25T04:06:04;5.80;;;4.00;;
76826;SDS011;65788;52.284;20.890;2023-04-25T04:08:32;7.00;;;4.10;;
76826;SDS011;65788;52.284;20.890;2023-04-25T04:10:59;6.50;;;4.10;;
76826;SDS011;65788;52.284;20.890;2023-04-25T04:13:27;5.70;;;4.40;;
76826;SDS011;65788;52.284;20.890;2023-04-25T04:15:54;5.00;;;3.90;;
76826;SDS011;65788;52.284;20.890;2023-04-25T04:18:22;5.90;;;4.00;;
76826;SDS011;65788;52.284;20.890;2023-04-25T04:20:48;4.60;;;4.00;;
76826;SDS011;65788;52.284;20.890;2023-04-25T04:23:16;6.80;;;3.90;;
76826;SDS011;65788;52.284;20.890;2023-04-25T04:25:43;4.80;;;3.90;;
76826;SDS011;65788;52.284;20.890;2023-04-25T04:28:11;4.60;;;3.50;;
76826;SDS011;65788;52.284;20.890;2023-04-25T04:30:39;5.30;;;3.80;;
76826;SDS011;65788;52.284;20.890;2023-04-25T04:33:08;5.30;;;4.00;;
76826;SDS011;65788;52.284;20.890;2023-04-25T04:38:05;5.20;;;3.80;;
76826;SDS011;65788;52.284;20.890;2023-04-25T04:40:32;4.60;;;3.40;;
76826;SDS011;65788;52.284;20.890;2023-04-25T04:42:59;3.80;;;3.30;;
76826;SDS011;65788;52.284;20.890;2023-04-25T04:45:26;5.10;;;3.40;;
76826;SDS011;65788;52.284;20.890;2023-04-25T04:47:53;5.40;;;3.40;;
76826;SDS011;65788;52.284;20.890;2023-04-25T04:50:21;4.40;;;3.40;;
76826;SDS011;65788;52.284;20.890;2023-04-25T04:52:49;4.80;;;3.20;;
76826;SDS011;65788;52.284;20.890;2023-04-25T04:55:16;4.80;;;3.50;;
76826;SDS011;65788;52.284;20.890;2023-04-25T04:57:43;5.70;;;3.60;;
76826;SDS011;65788;52.284;20.890;2023-04-25T05:00:10;4.30;;;3.20;;
76826;SDS011;65788;52.284;20.890;2023-04-25T05:02:38;4.50;;;3.40;;
76826;SDS011;65788;52.284;20.890;2023-04-25T05:05:05;5.60;;;3.10;;
76826;SDS011;65788;52.284;20.890;2023-04-25T05:07:33;3.80;;;3.00;;
76826;SDS011;65788;52.284;20.890;2023-04-25T05:10:01;4.00;;;2.60;;
76826;SDS011;65788;52.284;20.890;2023-04-25T05:12:28;3.60;;;2.60;;
76826;SDS011;65788;52.284;20.890;2023-04-25T05:14:54;4.30;;;3.20;;
76826;SDS011;65788;52.284;20.890;2023-04-25T05:17:21;4.20;;;2.90;;
76826;SDS011;65788;52.284;20.890;2023-04-25T05:19:48;5.30;;;3.20;;
76826;SDS011;65788;52.284;20.890;2023-04-25T05:22:15;4.50;;;3.00;;
76826;SDS011;65788;52.284;20.890;2023-04-25T05:24:42;5.00;;;3.50;;
76826;SDS011;65788;52.284;20.890;2023-04-25T05:27:09;5.90;;;3.40;;
76826;SDS011;65788;52.284;20.890;2023-04-25T05:29:36;4.40;;;2.70;;
76826;SDS011;65788;52.284;20.890;2023-04-25T05:32:03;4.30;;;2.80;;
76826;SDS011;65788;52.284;20.890;2023-04-25T05:34:35;4.40;;;2.40;;
76826;SDS011;65788;52.284;20.890;2023-04-25T05:37:03;4.30;;;2.30;;
76826;SDS011;65788;52.284;20.890;2023-04-25T05:39:30;3.80;;;2.50;;
76826;SDS011;65788;52.284;20.890;2023-04-25T05:41:57;11.00;;;3.50;;
76826;SDS011;65788;52.284;20.890;2023-04-25T05:44:23;4.10;;;2.90;;
76826;SDS011;65788;52.284;20.890;2023-04-25T05:46:50;4.30;;;3.00;;
76826;SDS011;65788;52.284;20.890;2023-04-25T05:49:17;3.80;;;2.50;;
76826;SDS011;65788;52.284;20.890;2023-04-25T05:51:44;3.80;;;2.70;;
76826;SDS011;65788;52.284;20.890;2023-04-25T05:54:11;4.00;;;2.60;;
76826;SDS011;65788;52.284;20.890;2023-04-25T05:56:40;3.70;;;2.50;;
76826;SDS011;65788;52.284;20.890;2023-04-25T05:59:07;4.50;;;2.90;;
76826;SDS011;65788;52.284;20.890;2023-04-25T06:01:34;4.20;;;2.50;;
76826;SDS011;65788;52.284;20.890;2023-04-25T06:04:02;4.10;;;2.50;;
76826;SDS011;65788;52.284;20.890;2023-04-25T06:06:28;4.40;;;2.70;;
76826;SDS011;65788;52.284;20.890;2023-04-25T06:08:56;4.70;;;2.60;;
76826;SDS011;65788;52.284;20.890;2023-04-25T06:11:23;3.90;;;2.40;;
76826;SDS011;65788;52.284;20.890;2023-04-25T06:13:50;3.90;;;2.60;;
76826;SDS011;65788;52.284;20.890;2023-04-25T06:16:17;3.50;;;2.40;;
76826;SDS011;65788;52.284;20.890;2023-04-25T06:18:44;3.40;;;2.30;;
76826;SDS011;65788;52.284;20.890;2023-04-25T06:21:11;3.80;;;2.70;;
76826;SDS011;65788;52.284;20.890;2023-04-25T06:23:38;4.20;;;2.70;;
76826;SDS011;65788;52.284;20.890;2023-04-25T06:26:05;3.90;;;2.30;;
76826;SDS011;65788;52.284;20.890;2023-04-25T06:28:32;4.80;;;2.40;;
76826;SDS011;65788;52.284;20.890;2023-04-25T06:30:59;3.60;;;2.50;;
76826;SDS011;65788;52.284;20.890;2023-04-25T06:33:26;3.30;;;2.40;;
76826;SDS011;65788;52.284;20.890;2023-04-25T06:35:53;3.30;;;2.20;;
76826;SDS011;65788;52.284;20.890;2023-04-25T06:38:20;3.30;;;2.50;;
76826;SDS011;65788;52.284;20.890;2023-04-25T06:40:47;3.60;;;2.60;;
76826;SDS011;65788;52.284;20.890;2023-04-25T06:43:13;3.80;;;2.70;;
76826;SDS011;65788;52.284;20.890;2023-04-25T06:45:40;4.30;;;2.60;;
76826;SDS011;65788;52.284;20.890;2023-04-25T06:48:08;3.40;;;2.20;;
76826;SDS011;65788;52.284;20.890;2023-04-25T06:50:35;3.70;;;2.60;;
76826;SDS011;65788;52.284;20.890;2023-04-25T06:53:02;4.00;;;2.60;;
76826;SDS011;65788;52.284;20.890;2023-04-25T06:55:29;3.30;;;2.00;;
76826;SDS011;65788;52.284;20.890;2023-04-25T06:57:56;3.80;;;2.30;;
76826;SDS011;65788;52.284;20.890;2023-04-25T07:00:23;3.70;;;2.30;;
76826;SDS011;65788;52.284;20.890;2023-04-25T07:02:50;3.50;;;2.40;;
76826;SDS011;65788;52.284;20.890;2023-04-25T07:05:20;3.10;;;2.20;;
76826;SDS011;65788;52.284;20.890;2023-04-25T07:07:48;3.00;;;2.20;;
76826;SDS011;65788;52.284;20.890;2023-04-25T07:10:14;2.90;;;2.20;;
76826;SDS011;65788;52.284;20.890;2023-04-25T07:12:41;3.40;;;2.50;;
76826;SDS011;65788;52.284;20.890;2023-04-25T07:15:09;3.40;;;2.30;;
76826;SDS011;65788;52.284;20.890;2023-04-25T07:17:37;4.30;;;2.70;;
76826;SDS011;65788;52.284;20.890;2023-04-25T07:20:05;3.40;;;2.30;;
76826;SDS011;65788;52.284;20.890;2023-04-25T07:22:32;3.00;;;2.00;;
76826;SDS011;65788;52.284;20.890;2023-04-25T07:24:59;3.60;;;2.50;;
76826;SDS011;65788;52.284;20.890;2023-04-25T07:27:26;3.60;;;1.90;;
76826;SDS011;65788;52.284;20.890;2023-04-25T07:29:54;3.80;;;2.10;;
76826;SDS011;65788;52.284;20.890;2023-04-25T07:32:24;3.30;;;2.10;;
76826;SDS011;65788;52.284;20.890;2023-04-25T07:34:52;5.70;;;2.10;;
76826;SDS011;65788;52.284;20.890;2023-04-25T07:37:19;3.50;;;1.90;;
76826;SDS011;65788;52.284;20.890;2023-04-25T07:39:45;4.50;;;1.90;;
76826;SDS011;65788;52.284;20.890;2023-04-25T07:42:13;3.00;;;2.00;;
76826;SDS011;65788;52.284;20.890;2023-04-25T07:44:41;3.60;;;2.30;;
76826;SDS011;65788;52.284;20.890;2023-04-25T07:47:09;3.40;;;1.90;;
76826;SDS011;65788;52.284;20.890;2023-04-25T07:49:36;4.10;;;2.10;;
76826;SDS011;65788;52.284;20.890;2023-04-25T07:52:04;3.10;;;1.90;;
76826;SDS011;65788;52.284;20.890;2023-04-25T07:54:34;3.50;;;2.10;;
76826;SDS011;65788;52.284;20.890;2023-04-25T07:57:01;2.60;;;1.90;;
76826;SDS011;65788;52.284;20.890;2023-04-25T07:59:29;2.90;;;1.80;;
76826;SDS011;65788;52.284;20.890;2023-04-25T08:01:56;2.70;;;1.90;;
76826;SDS011;65788;52.284;20.890;2023-04-25T08:04:24;2.40;;;1.60;;
76826;SDS011;65788;52.284;20.890;2023-04-25T08:06:52;3.30;;;1.90;;
76826;SDS011;65788;52.284;20.890;2023-04-25T08:09:20;3.40;;;2.10;;
76826;SDS011;65788;52.284;20.890;2023-04-25T08:11:47;3.40;;;2.00;;
76826;SDS011;65788;52.284;20.890;2023-04-25T08:14:14;3.60;;;2.10;;
76826;SDS011;65788;52.284;20.890;2023-04-25T08:16:41;2.90;;;1.90;;
76826;SDS011;65788;52.284;20.890;2023-04-25T08:19:09;2.30;;;1.80;;
76826;SDS011;65788;52.284;20.890;2023-04-25T08:21:36;2.50;;;1.70;;
76826;SDS011;65788;52.284;20.890;2023-04-25T08:24:04;2.90;;;1.80;;
76826;SDS011;65788;52.284;20.890;2023-04-25T08:26:31;3.00;;;1.90;;
76826;SDS011;65788;52.284;20.890;2023-04-25T08:28:58;3.10;;;1.80;;
76826;SDS011;65788;52.284;20.890;2023-04-25T08:31:25;3.60;;;2.10;;
76826;SDS011;65788;52.284;20.890;2023-04-25T08:33:52;2.60;;;1.60;;
76826;SDS011;65788;52.284;20.890;2023-04-25T08:36:22;3.70;;;1.80;;
76826;SDS011;65788;52.284;20.890;2023-04-25T08:38:50;3.80;;;1.70;;
76826;SDS011;65788;52.284;20.890;2023-04-25T08:41:17;2.50;;;1.80;;
76826;SDS011;65788;52.284;20.890;2023-04-25T08:43:47;2.90;;;1.70;;
76826;SDS011;65788;52.284;20.890;2023-04-25T08:46:17;3.70;;;1.80;;
76826;SDS011;65788;52.284;20.890;2023-04-25T08:48:45;2.30;;;1.60;;
76826;SDS011;65788;52.284;20.890;2023-04-25T08:51:15;3.40;;;1.70;;
76826;SDS011;65788;52.284;20.890;2023-04-25T08:53:52;2.50;;;1.60;;
76826;SDS011;65788;52.284;20.890;2023-04-25T08:56:19;2.60;;;1.80;;
76826;SDS011;65788;52.284;20.890;2023-04-25T08:58:49;2.90;;;1.60;;
76826;SDS011;65788;52.284;20.890;2023-04-25T09:01:17;3.30;;;1.90;;
76826;SDS011;65788;52.284;20.890;2023-04-25T09:03:45;2.50;;;1.80;;
76826;SDS011;65788;52.284;20.890;2023-04-25T09:06:13;3.00;;;1.80;;
76826;SDS011;65788;52.284;20.890;2023-04-25T09:08:42;2.70;;;1.70;;
76826;SDS011;65788;52.284;20.890;2023-04-25T09:11:09;4.20;;;1.70;;
76826;SDS011;65788;52.284;20.890;2023-04-25T09:13:36;2.20;;;1.60;;
76826;SDS011;65788;52.284;20.890;2023-04-25T09:16:03;2.20;;;1.50;;
76826;SDS011;65788;52.284;20.890;2023-04-25T09:18:32;3.00;;;1.70;;
76826;SDS011;65788;52.284;20.890;2023-04-25T09:21:09;2.20;;;1.60;;
76826;SDS011;65788;52.284;20.890;2023-04-25T09:26:16;2.40;;;1.60;;
76826;SDS011;65788;52.284;20.890;2023-04-25T09:28:44;2.70;;;1.60;;
76826;SDS011;65788;52.284;20.890;2023-04-25T09:31:20;3.30;;;1.70;;
76826;SDS011;65788;52.284;20.890;2023-04-25T09:33:48;3.50;;;1.70;;
76826;SDS011;65788;52.284;20.890;2023-04-25T09:36:16;2.40;;;1.50;;
76826;SDS011;65788;52.284;20.890;2023-04-25T09:38:43;2.90;;;1.60;;
76826;SDS011;65788;52.284;20.890;2023-04-25T09:41:11;2.40;;;1.80;;
76826;SDS011;65788;52.284;20.890;2023-04-25T09:43:39;2.60;;;1.90;;
76826;SDS011;65788;52.284;20.890;2023-04-25T09:46:09;2.90;;;1.90;;
76826;SDS011;65788;52.284;20.890;2023-04-25T09:48:37;2.40;;;1.70;;
76826;SDS011;65788;52.284;20.890;2023-04-25T09:53:33;3.80;;;2.20;;
76826;SDS011;65788;52.284;20.890;2023-04-25T09:56:11;2.40;;;1.70;;
76826;SDS011;65788;52.284;20.890;2023-04-25T09:58:39;2.90;;;1.80;;
76826;SDS011;65788;52.284;20.890;2023-04-25T10:03:37;3.90;;;2.20;;
76826;SDS011;65788;52.284;20.890;2023-04-25T10:06:15;3.00;;;2.20;;
76826;SDS011;65788;52.284;20.890;2023-04-25T10:08:46;2.60;;;2.10;;
76826;SDS011;65788;52.284;20.890;2023-04-25T10:11:17;2.90;;;2.10;;
76826;SDS011;65788;52.284;20.890;2023-04-25T10:13:44;3.20;;;2.00;;
76826;SDS011;65788;52.284;20.890;2023-04-25T10:16:12;2.70;;;2.30;;
76826;SDS011;65788;52.284;20.890;2023-04-25T10:18:42;3.50;;;2.20;;
76826;SDS011;65788;52.284;20.890;2023-04-25T10:21:08;4.00;;;2.00;;
76826;SDS011;65788;52.284;20.890;2023-04-25T10:23:37;2.90;;;2.10;;
76826;SDS011;65788;52.284;20.890;2023-04-25T10:26:05;3.40;;;2.00;;
76826;SDS011;65788;52.284;20.890;2023-04-25T10:28:54;3.30;;;2.30;;
76826;SDS011;65788;52.284;20.890;2023-04-25T10:31:24;3.20;;;2.10;;
76826;SDS011;65788;52.284;20.890;2023-04-25T10:33:52;3.30;;;2.60;;
76826;SDS011;65788;52.284;20.890;2023-04-25T10:36:23;3.40;;;2.10;;
76826;SDS011;65788;52.284;20.890;2023-04-25T10:38:53;3.40;;;2.30;;
76826;SDS011;65788;52.284;20.890;2023-04-25T10:41:21;3.50;;;2.20;;
76826;SDS011;65788;52.284;20.890;2023-04-25T10:43:49;2.50;;;2.10;;
76826;SDS011;65788;52.284;20.890;2023-04-25T10:46:25;2.80;;;2.20;;
76826;SDS011;65788;52.284;20.890;2023-04-25T10:48:58;2.40;;;2.10;;
76826;SDS011;65788;52.284;20.890;2023-04-25T10:51:28;3.50;;;2.80;;
76826;SDS011;65788;52.284;20.890;2023-04-25T10:54:02;2.80;;;2.20;;
76826;SDS011;65788;52.284;20.890;2023-04-25T10:56:35;3.50;;;2.50;;
76826;SDS011;65788;52.284;20.890;2023-04-25T11:01:37;3.60;;;2.10;;
76826;SDS011;65788;52.284;20.890;2023-04-25T11:04:21;2.70;;;2.10;;
76826;SDS011;65788;52.284;20.890;2023-04-25T11:09:18;4.30;;;2.30;;
76826;SDS011;65788;52.284;20.890;2023-04-25T11:11:53;3.10;;;2.30;;
76826;SDS011;65788;52.284;20.890;2023-04-25T11:14:24;3.00;;;2.50;;
76826;SDS011;65788;52.284;20.890;2023-04-25T11:16:55;3.10;;;2.40;;
76826;SDS011;65788;52.284;20.890;2023-04-25T11:19:24;2.80;;;2.20;;
76826;SDS011;65788;52.284;20.890;2023-04-25T11:21:57;2.70;;;2.00;;
76826;SDS011;65788;52.284;20.890;2023-04-25T11:24:34;2.70;;;2.10;;
76826;SDS011;65788;52.284;20.890;2023-04-25T11:27:03;3.70;;;2.40;;
76826;SDS011;65788;52.284;20.890;2023-04-25T11:29:31;3.20;;;2.00;;
76826;SDS011;65788;52.284;20.890;2023-04-25T11:31:59;3.30;;;2.20;;
76826;SDS011;65788;52.284;20.890;2023-04-25T11:34:27;2.90;;;2.40;;
76826;SDS011;65788;52.284;20.890;2023-04-25T11:36:57;4.10;;;2.10;;
76826;SDS011;65788;52.284;20.890;2023-04-25T11:39:24;2.60;;;1.90;;
76826;SDS011;65788;52.284;20.890;2023-04-25T11:41:52;3.90;;;2.00;;
76826;SDS011;65788;52.284;20.890;2023-04-25T11:44:20;2.70;;;2.10;;
76826;SDS011;65788;52.284;20.890;2023-04-25T11:46:48;4.10;;;2.40;;
76826;SDS011;65788;52.284;20.890;2023-04-25T11:49:15;2.80;;;1.90;;
76826;SDS011;65788;52.284;20.890;2023-04-25T11:51:45;3.60;;;2.00;;
76826;SDS011;65788;52.284;20.890;2023-04-25T11:54:14;2.70;;;2.00;;
76826;SDS011;65788;52.284;20.890;2023-04-25T11:56:42;3.00;;;2.00;;
76826;SDS011;65788;52.284;20.890;2023-04-25T11:59:10;2.70;;;2.10;;
76826;SDS011;65788;52.284;20.890;2023-04-25T12:01:39;2.80;;;2.10;;
76826;SDS011;65788;52.284;20.890;2023-04-25T12:04:14;3.50;;;2.00;;
76826;SDS011;65788;52.284;20.890;2023-04-25T12:06:41;5.50;;;3.10;;
76826;SDS011;65788;52.284;20.890;2023-04-25T12:09:10;3.50;;;2.90;;
76826;SDS011;65788;52.284;20.890;2023-04-25T12:11:42;3.60;;;2.50;;
76826;SDS011;65788;52.284;20.890;2023-04-25T12:14:11;3.70;;;2.70;;
76826;SDS011;65788;52.284;20.890;2023-04-25T12:16:43;3.30;;;2.60;;
76826;SDS011;65788;52.284;20.890;2023-04-25T12:19:16;5.40;;;2.70;;
76826;SDS011;65788;52.284;20.890;2023-04-25T12:21:44;4.30;;;2.70;;
76826;SDS011;65788;52.284;20.890;2023-04-25T12:24:20;4.00;;;2.80;;
76826;SDS011;65788;52.284;20.890;2023-04-25T12:29:26;4.20;;;2.50;;
76826;SDS011;65788;52.284;20.890;2023-04-25T12:31:55;4.80;;;2.90;;
76826;SDS011;65788;52.284;20.890;2023-04-25T12:34:22;5.20;;;2.60;;
76826;SDS011;65788;52.284;20.890;2023-04-25T12:36:50;4.30;;;2.50;;
76826;SDS011;65788;52.284;20.890;2023-04-25T12:39:19;3.20;;;2.50;;
76826;SDS011;65788;52.284;20.890;2023-04-25T12:41:50;4.60;;;2.60;;
76826;SDS011;65788;52.284;20.890;2023-04-25T12:44:20;4.80;;;2.50;;
76826;SDS011;65788;52.284;20.890;2023-04-25T12:46:48;6.20;;;3.00;;
76826;SDS011;65788;52.284;20.890;2023-04-25T12:49:15;3.60;;;2.30;;
76826;SDS011;65788;52.284;20.890;2023-04-25T12:51:42;5.00;;;2.40;;
76826;SDS011;65788;52.284;20.890;2023-04-25T12:54:09;4.20;;;2.50;;
76826;SDS011;65788;52.284;20.890;2023-04-25T12:56:36;2.70;;;2.10;;
76826;SDS011;65788;52.284;20.890;2023-04-25T12:59:03;4.80;;;2.90;;
76826;SDS011;65788;52.284;20.890;2023-04-25T13:01:32;3.60;;;2.20;;
76826;SDS011;65788;52.284;20.890;2023-04-25T13:03:59;3.40;;;2.10;;
76826;SDS011;65788;52.284;20.890;2023-04-25T13:06:27;6.20;;;2.10;;
76826;SDS011;65788;52.284;20.890;2023-04-25T13:08:54;3.30;;;1.90;;
76826;SDS011;65788;52.284;20.890;2023-04-25T13:11:21;2.90;;;1.80;;
76826;SDS011;65788;52.284;20.890;2023-04-25T13:13:48;3.70;;;1.80;;
76826;SDS011;65788;52.284;20.890;2023-04-25T13:16:14;3.50;;;1.70;;
76826;SDS011;65788;52.284;20.890;2023-04-25T13:18:42;3.00;;;2.00;;
76826;SDS011;65788;52.284;20.890;2023-04-25T13:21:09;3.40;;;2.10;;
76826;SDS011;65788;52.284;20.890;2023-04-25T13:23:38;4.60;;;1.70;;
76826;SDS011;65788;52.284;20.890;2023-04-25T13:26:05;3.90;;;1.70;;
76826;SDS011;65788;52.284;20.890;2023-04-25T13:28:32;3.00;;;1.90;;
76826;SDS011;65788;52.284;20.890;2023-04-25T13:31:01;2.40;;;1.40;;
76826;SDS011;65788;52.284;20.890;2023-04-25T13:33:28;3.10;;;1.70;;
76826;SDS011;65788;52.284;20.890;2023-04-25T13:35:56;2.30;;;1.60;;
76826;SDS011;65788;52.284;20.890;2023-04-25T13:38:26;2.70;;;1.80;;
76826;SDS011;65788;52.284;20.890;2023-04-25T13:40:53;2.40;;;1.70;;
76826;SDS011;65788;52.284;20.890;2023-04-25T13:43:20;2.70;;;1.80;;
76826;SDS011;65788;52.284;20.890;2023-04-25T13:45:50;2.70;;;1.60;;
76826;SDS011;65788;52.284;20.890;2023-04-25T13:48:18;2.60;;;1.60;;
76826;SDS011;65788;52.284;20.890;2023-04-25T13:50:45;2.70;;;1.70;;
76826;SDS011;65788;52.284;20.890;2023-04-25T13:53:13;4.00;;;2.00;;
76826;SDS011;65788;52.284;20.890;2023-04-25T13:55:40;2.90;;;1.80;;
76826;SDS011;65788;52.284;20.890;2023-04-25T13:58:08;5.50;;;1.90;;
76826;SDS011;65788;52.284;20.890;2023-04-25T14:00:36;2.50;;;1.50;;
76826;SDS011;65788;52.284;20.890;2023-04-25T14:03:05;2.40;;;1.60;;
76826;SDS011;65788;52.284;20.890;2023-04-25T14:08:07;2.90;;;1.70;;
76826;SDS011;65788;52.284;20.890;2023-04-25T14:10:35;2.50;;;1.50;;
76826;SDS011;65788;52.284;20.890;2023-04-25T14:13:05;2.50;;;1.60;;
76826;SDS011;65788;52.284;20.890;2023-04-25T14:15:34;2.40;;;1.70;;
76826;SDS011;65788;52.284;20.890;2023-04-25T14:18:01;3.10;;;1.60;;
76826;SDS011;65788;52.284;20.890;2023-04-25T14:20:28;3.50;;;1.60;;
76826;SDS011;65788;52.284;20.890;2023-04-25T14:22:56;2.60;;;1.70;;
76826;SDS011;65788;52.284;20.890;2023-04-25T14:25:24;2.70;;;1.40;;
76826;SDS011;65788;52.284;20.890;2023-04-25T14:27:52;3.30;;;1.70;;
76826;SDS011;65788;52.284;20.890;2023-04-25T14:30:19;2.60;;;1.80;;
76826;SDS011;65788;52.284;20.890;2023-04-25T14:32:50;3.00;;;1.90;;
76826;SDS011;65788;52.284;20.890;2023-04-25T14:35:17;4.80;;;1.90;;
76826;SDS011;65788;52.284;20.890;2023-04-25T14:37:44;4.20;;;2.10;;
76826;SDS011;65788;52.284;20.890;2023-04-25T14:40:11;3.20;;;2.40;;
76826;SDS011;65788;52.284;20.890;2023-04-25T14:42:41;2.80;;;1.80;;
76826;SDS011;65788;52.284;20.890;2023-04-25T14:45:09;2.20;;;1.60;;
76826;SDS011;65788;52.284;20.890;2023-04-25T14:47:36;2.10;;;1.50;;
76826;SDS011;65788;52.284;20.890;2023-04-25T14:50:05;4.10;;;1.90;;
76826;SDS011;65788;52.284;20.890;2023-04-25T14:52:33;3.30;;;2.00;;
76826;SDS011;65788;52.284;20.890;2023-04-25T14:55:01;2.50;;;1.70;;
76826;SDS011;65788;52.284;20.890;2023-04-25T14:57:32;2.50;;;1.50;;
76826;SDS011;65788;52.284;20.890;2023-04-25T14:59:59;3.00;;;1.90;;
76826;SDS011;65788;52.284;20.890;2023-04-25T15:02:27;2.60;;;1.80;;
76826;SDS011;65788;52.284;20.890;2023-04-25T15:04:54;2.90;;;1.50;;
76826;SDS011;65788;52.284;20.890;2023-04-25T15:07:22;3.90;;;1.70;;